sensor_id;sensor_type;location;lat;lon;timestamp;P1;durP1;ratioP1;P2;durP2;ratioP2
20322;SDS011;10319;52.206;20.996;2022-12-10T00:02:24;65.27;;;27.20;;
20322;SDS011;10319;52.206;20.996;2022-12-10T00:04:50;57.30;;;25.70;;
20322;SDS011;10319;52.206;20.996;2022-12-10T00:07:15;56.93;;;26.20;;
20322;SDS011;10319;52.206;20.996;2022-12-10T00:09:40;55.73;;;24.27;;
20322;SDS011;10319;52.206;20.996;2022-12-10T00:12:05;56.10;;;25.10;;
20322;SDS011;10319;52.206;20.996;2022-12-10T00:14:30;50.80;;;23.47;;
20322;SDS011;10319;52.206;20.996;2022-12-10T00:16:56;57.30;;;26.70;;
20322;SDS011;10319;52.206;20.996;2022-12-10T00:19:21;58.17;;;27.33;;
20322;SDS011;10319;52.206;20.996;2022-12-10T00:21:46;60.53;;;28.47;;
20322;SDS011;10319;52.206;20.996;2022-12-10T00:24:11;64.43;;;28.80;;
20322;SDS011;10319;52.206;20.996;2022-12-10T00:26:37;64.53;;;28.47;;
20322;SDS011;10319;52.206;20.996;2022-12-10T00:29:04;61.10;;;27.97;;
20322;SDS011;10319;52.206;20.996;2022-12-10T00:31:31;60.90;;;28.47;;
20322;SDS011;10319;52.206;20.996;2022-12-10T00:33:57;61.40;;;27.47;;
20322;SDS011;10319;52.206;20.996;2022-12-10T00:36:27;73.07;;;31.37;;
20322;SDS011;10319;52.206;20.996;2022-12-10T00:38:52;66.70;;;29.77;;
20322;SDS011;10319;52.206;20.996;2022-12-10T00:41:17;63.00;;;28.83;;
20322;SDS011;10319;52.206;20.996;2022-12-10T00:43:43;64.67;;;29.80;;
20322;SDS011;10319;52.206;20.996;2022-12-10T00:46:08;65.77;;;28.87;;
20322;SDS011;10319;52.206;20.996;2022-12-10T00:48:33;62.93;;;28.47;;
20322;SDS011;10319;52.206;20.996;2022-12-10T00:53:24;59.60;;;27.87;;
20322;SDS011;10319;52.206;20.996;2022-12-10T00:55:50;66.60;;;28.93;;
20322;SDS011;10319;52.206;20.996;2022-12-10T00:58:15;61.70;;;28.93;;
20322;SDS011;10319;52.206;20.996;2022-12-10T01:00:41;63.27;;;28.47;;
20322;SDS011;10319;52.206;20.996;2022-12-10T01:03:06;58.20;;;26.40;;
20322;SDS011;10319;52.206;20.996;2022-12-10T01:05:31;56.23;;;25.80;;
20322;SDS011;10319;52.206;20.996;2022-12-10T01:07:56;60.97;;;27.80;;
20322;SDS011;10319;52.206;20.996;2022-12-10T01:10:22;62.10;;;28.67;;
20322;SDS011;10319;52.206;20.996;2022-12-10T01:12:47;59.30;;;27.43;;
20322;SDS011;10319;52.206;20.996;2022-12-10T01:15:12;57.63;;;26.07;;
20322;SDS011;10319;52.206;20.996;2022-12-10T01:17:37;60.83;;;25.67;;
20322;SDS011;10319;52.206;20.996;2022-12-10T01:20:03;58.87;;;26.13;;
20322;SDS011;10319;52.206;20.996;2022-12-10T01:22:28;61.07;;;28.83;;
20322;SDS011;10319;52.206;20.996;2022-12-10T01:24:53;62.47;;;28.03;;
20322;SDS011;10319;52.206;20.996;2022-12-10T01:27:19;65.90;;;28.93;;
20322;SDS011;10319;52.206;20.996;2022-12-10T01:29:44;60.93;;;26.97;;
20322;SDS011;10319;52.206;20.996;2022-12-10T01:32:09;62.73;;;27.70;;
20322;SDS011;10319;52.206;20.996;2022-12-10T01:34:34;60.03;;;26.43;;
20322;SDS011;10319;52.206;20.996;2022-12-10T01:36:59;60.63;;;26.13;;
20322;SDS011;10319;52.206;20.996;2022-12-10T01:39:25;56.43;;;23.93;;
20322;SDS011;10319;52.206;20.996;2022-12-10T01:41:54;59.43;;;26.57;;
20322;SDS011;10319;52.206;20.996;2022-12-10T01:46:46;62.53;;;27.87;;
20322;SDS011;10319;52.206;20.996;2022-12-10T01:49:15;60.17;;;27.67;;
20322;SDS011;10319;52.206;20.996;2022-12-10T01:51:41;64.93;;;28.03;;
20322;SDS011;10319;52.206;20.996;2022-12-10T01:54:10;62.30;;;27.57;;
20322;SDS011;10319;52.206;20.996;2022-12-10T01:56:38;62.23;;;26.93;;
20322;SDS011;10319;52.206;20.996;2022-12-10T01:59:05;58.07;;;25.33;;
20322;SDS011;10319;52.206;20.996;2022-12-10T02:09:08;61.70;;;25.70;;
20322;SDS011;10319;52.206;20.996;2022-12-10T02:11:42;57.07;;;24.80;;
20322;SDS011;10319;52.206;20.996;2022-12-10T02:14:15;56.37;;;24.97;;
20322;SDS011;10319;52.206;20.996;2022-12-10T02:16:44;62.07;;;26.47;;
20322;SDS011;10319;52.206;20.996;2022-12-10T02:19:21;52.13;;;22.40;;
20322;SDS011;10319;52.206;20.996;2022-12-10T02:21:48;51.80;;;22.17;;
20322;SDS011;10319;52.206;20.996;2022-12-10T02:24:15;50.27;;;22.47;;
20322;SDS011;10319;52.206;20.996;2022-12-10T02:29:12;58.97;;;24.97;;
20322;SDS011;10319;52.206;20.996;2022-12-10T02:31:41;55.63;;;24.17;;
20322;SDS011;10319;52.206;20.996;2022-12-10T02:34:07;51.70;;;22.17;;
20322;SDS011;10319;52.206;20.996;2022-12-10T02:36:34;51.40;;;21.10;;
20322;SDS011;10319;52.206;20.996;2022-12-10T02:39:00;46.63;;;19.77;;
20322;SDS011;10319;52.206;20.996;2022-12-10T02:41:28;54.53;;;23.00;;
20322;SDS011;10319;52.206;20.996;2022-12-10T02:43:54;46.90;;;20.77;;
20322;SDS011;10319;52.206;20.996;2022-12-10T02:46:21;43.27;;;19.20;;
20322;SDS011;10319;52.206;20.996;2022-12-10T02:48:47;48.67;;;21.07;;
20322;SDS011;10319;52.206;20.996;2022-12-10T02:51:13;51.00;;;21.73;;
20322;SDS011;10319;52.206;20.996;2022-12-10T02:53:42;51.43;;;21.80;;
20322;SDS011;10319;52.206;20.996;2022-12-10T02:56:12;45.53;;;19.17;;
20322;SDS011;10319;52.206;20.996;2022-12-10T02:58:51;42.73;;;18.40;;
20322;SDS011;10319;52.206;20.996;2022-12-10T03:03:52;46.43;;;21.00;;
20322;SDS011;10319;52.206;20.996;2022-12-10T03:06:24;45.10;;;18.30;;
20322;SDS011;10319;52.206;20.996;2022-12-10T03:08:59;41.77;;;17.97;;
20322;SDS011;10319;52.206;20.996;2022-12-10T03:11:26;36.57;;;16.07;;
20322;SDS011;10319;52.206;20.996;2022-12-10T03:13:54;41.03;;;17.07;;
20322;SDS011;10319;52.206;20.996;2022-12-10T03:16:20;39.17;;;16.83;;
20322;SDS011;10319;52.206;20.996;2022-12-10T03:18:47;42.17;;;17.03;;
20322;SDS011;10319;52.206;20.996;2022-12-10T03:21:14;36.93;;;16.33;;
20322;SDS011;10319;52.206;20.996;2022-12-10T03:23:40;40.07;;;16.87;;
20322;SDS011;10319;52.206;20.996;2022-12-10T03:26:07;47.00;;;19.10;;
20322;SDS011;10319;52.206;20.996;2022-12-10T03:28:34;46.50;;;19.33;;
20322;SDS011;10319;52.206;20.996;2022-12-10T03:31:00;44.03;;;18.97;;
20322;SDS011;10319;52.206;20.996;2022-12-10T03:33:25;44.40;;;18.97;;
20322;SDS011;10319;52.206;20.996;2022-12-10T03:35:51;46.70;;;18.67;;
20322;SDS011;10319;52.206;20.996;2022-12-10T03:38:16;43.67;;;19.00;;
20322;SDS011;10319;52.206;20.996;2022-12-10T03:40:41;47.17;;;19.53;;
20322;SDS011;10319;52.206;20.996;2022-12-10T03:43:07;50.00;;;21.60;;
20322;SDS011;10319;52.206;20.996;2022-12-10T03:45:32;48.47;;;20.00;;
20322;SDS011;10319;52.206;20.996;2022-12-10T03:47:57;46.80;;;19.63;;
20322;SDS011;10319;52.206;20.996;2022-12-10T03:50:22;45.80;;;19.13;;
20322;SDS011;10319;52.206;20.996;2022-12-10T03:52:48;42.70;;;18.73;;
20322;SDS011;10319;52.206;20.996;2022-12-10T03:55:13;42.43;;;18.47;;
20322;SDS011;10319;52.206;20.996;2022-12-10T03:57:38;41.17;;;18.47;;
20322;SDS011;10319;52.206;20.996;2022-12-10T04:00:04;43.60;;;18.10;;
20322;SDS011;10319;52.206;20.996;2022-12-10T04:02:29;42.00;;;17.23;;
20322;SDS011;10319;52.206;20.996;2022-12-10T04:04:55;47.63;;;19.20;;
20322;SDS011;10319;52.206;20.996;2022-12-10T04:07:20;44.70;;;18.43;;
20322;SDS011;10319;52.206;20.996;2022-12-10T04:09:45;45.53;;;18.80;;
20322;SDS011;10319;52.206;20.996;2022-12-10T04:12:10;44.27;;;19.10;;
20322;SDS011;10319;52.206;20.996;2022-12-10T04:14:35;39.67;;;16.60;;
20322;SDS011;10319;52.206;20.996;2022-12-10T04:17:19;48.83;;;19.27;;
20322;SDS011;10319;52.206;20.996;2022-12-10T04:19:45;43.93;;;18.13;;
20322;SDS011;10319;52.206;20.996;2022-12-10T04:22:10;43.70;;;18.17;;
20322;SDS011;10319;52.206;20.996;2022-12-10T04:24:54;43.20;;;18.17;;
20322;SDS011;10319;52.206;20.996;2022-12-10T04:27:38;44.37;;;18.53;;
20322;SDS011;10319;52.206;20.996;2022-12-10T04:30:04;43.17;;;17.27;;
20322;SDS011;10319;52.206;20.996;2022-12-10T04:32:30;42.17;;;17.23;;
20322;SDS011;10319;52.206;20.996;2022-12-10T04:34:56;42.43;;;16.77;;
20322;SDS011;10319;52.206;20.996;2022-12-10T04:37:21;42.70;;;17.87;;
20322;SDS011;10319;52.206;20.996;2022-12-10T04:39:47;42.30;;;16.90;;
20322;SDS011;10319;52.206;20.996;2022-12-10T04:42:13;40.37;;;16.07;;
20322;SDS011;10319;52.206;20.996;2022-12-10T04:44:38;41.27;;;17.30;;
20322;SDS011;10319;52.206;20.996;2022-12-10T04:47:04;37.70;;;15.93;;
20322;SDS011;10319;52.206;20.996;2022-12-10T04:49:30;42.27;;;16.80;;
20322;SDS011;10319;52.206;20.996;2022-12-10T04:51:55;39.47;;;16.33;;
20322;SDS011;10319;52.206;20.996;2022-12-10T04:54:20;37.63;;;15.77;;
20322;SDS011;10319;52.206;20.996;2022-12-10T04:56:46;37.53;;;14.83;;
20322;SDS011;10319;52.206;20.996;2022-12-10T04:59:11;31.57;;;13.10;;
20322;SDS011;10319;52.206;20.996;2022-12-10T05:01:37;37.93;;;15.20;;
20322;SDS011;10319;52.206;20.996;2022-12-10T05:04:03;38.90;;;15.43;;
20322;SDS011;10319;52.206;20.996;2022-12-10T05:06:29;41.27;;;17.00;;
20322;SDS011;10319;52.206;20.996;2022-12-10T05:08:54;43.10;;;17.70;;
20322;SDS011;10319;52.206;20.996;2022-12-10T05:11:20;47.10;;;18.03;;
20322;SDS011;10319;52.206;20.996;2022-12-10T05:13:46;47.90;;;17.90;;
20322;SDS011;10319;52.206;20.996;2022-12-10T05:16:12;40.37;;;16.43;;
20322;SDS011;10319;52.206;20.996;2022-12-10T05:18:37;45.10;;;18.17;;
20322;SDS011;10319;52.206;20.996;2022-12-10T05:21:06;42.53;;;16.87;;
20322;SDS011;10319;52.206;20.996;2022-12-10T05:23:32;40.50;;;16.70;;
20322;SDS011;10319;52.206;20.996;2022-12-10T05:26:02;37.77;;;15.20;;
20322;SDS011;10319;52.206;20.996;2022-12-10T05:28:28;37.00;;;14.60;;
20322;SDS011;10319;52.206;20.996;2022-12-10T05:30:53;36.60;;;14.93;;
20322;SDS011;10319;52.206;20.996;2022-12-10T05:33:18;35.07;;;14.17;;
20322;SDS011;10319;52.206;20.996;2022-12-10T05:35:50;38.73;;;14.27;;
20322;SDS011;10319;52.206;20.996;2022-12-10T05:38:16;39.87;;;14.33;;
20322;SDS011;10319;52.206;20.996;2022-12-10T05:40:41;35.40;;;13.80;;
20322;SDS011;10319;52.206;20.996;2022-12-10T05:43:06;36.03;;;13.13;;
20322;SDS011;10319;52.206;20.996;2022-12-10T05:45:31;33.57;;;13.83;;
20322;SDS011;10319;52.206;20.996;2022-12-10T05:47:57;36.43;;;13.70;;
20322;SDS011;10319;52.206;20.996;2022-12-10T05:50:23;37.63;;;14.70;;
20322;SDS011;10319;52.206;20.996;2022-12-10T05:52:49;37.27;;;14.33;;
20322;SDS011;10319;52.206;20.996;2022-12-10T05:55:15;35.43;;;14.47;;
20322;SDS011;10319;52.206;20.996;2022-12-10T05:57:40;39.93;;;14.70;;
20322;SDS011;10319;52.206;20.996;2022-12-10T06:00:05;35.53;;;14.30;;
20322;SDS011;10319;52.206;20.996;2022-12-10T06:02:33;42.63;;;16.03;;
20322;SDS011;10319;52.206;20.996;2022-12-10T06:04:58;35.30;;;14.00;;
20322;SDS011;10319;52.206;20.996;2022-12-10T06:07:24;33.80;;;13.87;;
20322;SDS011;10319;52.206;20.996;2022-12-10T06:09:49;37.13;;;13.27;;
20322;SDS011;10319;52.206;20.996;2022-12-10T06:12:14;32.73;;;12.73;;
20322;SDS011;10319;52.206;20.996;2022-12-10T06:14:40;36.40;;;13.90;;
20322;SDS011;10319;52.206;20.996;2022-12-10T06:17:05;36.73;;;14.33;;
20322;SDS011;10319;52.206;20.996;2022-12-10T06:19:30;37.20;;;14.03;;
20322;SDS011;10319;52.206;20.996;2022-12-10T06:21:55;36.67;;;13.70;;
20322;SDS011;10319;52.206;20.996;2022-12-10T06:24:20;33.77;;;12.57;;
20322;SDS011;10319;52.206;20.996;2022-12-10T06:26:46;32.10;;;11.67;;
20322;SDS011;10319;52.206;20.996;2022-12-10T06:29:11;31.20;;;11.87;;
20322;SDS011;10319;52.206;20.996;2022-12-10T06:31:36;35.27;;;12.70;;
20322;SDS011;10319;52.206;20.996;2022-12-10T06:34:01;37.17;;;14.80;;
20322;SDS011;10319;52.206;20.996;2022-12-10T06:36:27;37.60;;;15.30;;
20322;SDS011;10319;52.206;20.996;2022-12-10T06:38:52;36.33;;;14.30;;
20322;SDS011;10319;52.206;20.996;2022-12-10T06:41:18;38.93;;;15.13;;
20322;SDS011;10319;52.206;20.996;2022-12-10T06:43:43;38.47;;;14.07;;
20322;SDS011;10319;52.206;20.996;2022-12-10T06:46:10;36.00;;;13.60;;
20322;SDS011;10319;52.206;20.996;2022-12-10T06:48:36;39.00;;;14.53;;
20322;SDS011;10319;52.206;20.996;2022-12-10T06:51:01;34.47;;;13.40;;
20322;SDS011;10319;52.206;20.996;2022-12-10T06:53:27;37.93;;;14.73;;
20322;SDS011;10319;52.206;20.996;2022-12-10T06:55:52;37.47;;;13.80;;
20322;SDS011;10319;52.206;20.996;2022-12-10T06:58:17;36.27;;;13.07;;
20322;SDS011;10319;52.206;20.996;2022-12-10T07:00:42;34.27;;;13.17;;
20322;SDS011;10319;52.206;20.996;2022-12-10T07:03:07;39.50;;;14.70;;
20322;SDS011;10319;52.206;20.996;2022-12-10T07:05:33;42.33;;;15.23;;
20322;SDS011;10319;52.206;20.996;2022-12-10T07:07:58;38.60;;;15.30;;
20322;SDS011;10319;52.206;20.996;2022-12-10T07:10:23;36.47;;;13.83;;
20322;SDS011;10319;52.206;20.996;2022-12-10T07:12:48;40.13;;;14.77;;
20322;SDS011;10319;52.206;20.996;2022-12-10T07:15:13;43.00;;;15.10;;
20322;SDS011;10319;52.206;20.996;2022-12-10T07:17:39;43.07;;;14.80;;
20322;SDS011;10319;52.206;20.996;2022-12-10T07:20:04;41.77;;;15.47;;
20322;SDS011;10319;52.206;20.996;2022-12-10T07:22:29;39.93;;;13.03;;
20322;SDS011;10319;52.206;20.996;2022-12-10T07:24:55;35.87;;;12.77;;
20322;SDS011;10319;52.206;20.996;2022-12-10T07:27:20;37.90;;;14.10;;
20322;SDS011;10319;52.206;20.996;2022-12-10T07:29:45;42.33;;;14.87;;
20322;SDS011;10319;52.206;20.996;2022-12-10T07:32:10;35.37;;;12.57;;
20322;SDS011;10319;52.206;20.996;2022-12-10T07:34:36;44.40;;;16.03;;
20322;SDS011;10319;52.206;20.996;2022-12-10T07:37:01;41.23;;;15.43;;
20322;SDS011;10319;52.206;20.996;2022-12-10T07:39:26;44.37;;;14.93;;
20322;SDS011;10319;52.206;20.996;2022-12-10T07:41:52;41.87;;;16.17;;
20322;SDS011;10319;52.206;20.996;2022-12-10T07:44:20;37.10;;;13.47;;
20322;SDS011;10319;52.206;20.996;2022-12-10T07:46:46;37.97;;;13.80;;
20322;SDS011;10319;52.206;20.996;2022-12-10T07:49:12;40.43;;;15.27;;
20322;SDS011;10319;52.206;20.996;2022-12-10T07:51:38;42.00;;;14.77;;
20322;SDS011;10319;52.206;20.996;2022-12-10T07:54:03;38.17;;;14.17;;
20322;SDS011;10319;52.206;20.996;2022-12-10T07:56:28;40.67;;;15.13;;
20322;SDS011;10319;52.206;20.996;2022-12-10T07:58:54;40.47;;;14.47;;
20322;SDS011;10319;52.206;20.996;2022-12-10T08:01:20;33.57;;;12.60;;
20322;SDS011;10319;52.206;20.996;2022-12-10T08:03:47;34.93;;;13.03;;
20322;SDS011;10319;52.206;20.996;2022-12-10T08:06:13;36.43;;;12.70;;
20322;SDS011;10319;52.206;20.996;2022-12-10T08:08:39;40.70;;;14.93;;
20322;SDS011;10319;52.206;20.996;2022-12-10T08:11:05;36.97;;;13.03;;
20322;SDS011;10319;52.206;20.996;2022-12-10T08:13:30;37.60;;;13.17;;
20322;SDS011;10319;52.206;20.996;2022-12-10T08:18:27;40.30;;;14.67;;
20322;SDS011;10319;52.206;20.996;2022-12-10T08:20:53;36.43;;;13.40;;
20322;SDS011;10319;52.206;20.996;2022-12-10T08:23:18;39.53;;;13.80;;
20322;SDS011;10319;52.206;20.996;2022-12-10T08:25:43;37.30;;;13.90;;
20322;SDS011;10319;52.206;20.996;2022-12-10T08:28:08;34.87;;;13.60;;
20322;SDS011;10319;52.206;20.996;2022-12-10T08:30:34;33.00;;;12.87;;
20322;SDS011;10319;52.206;20.996;2022-12-10T08:32:59;37.73;;;12.97;;
20322;SDS011;10319;52.206;20.996;2022-12-10T08:35:24;34.87;;;12.53;;
20322;SDS011;10319;52.206;20.996;2022-12-10T08:37:50;38.63;;;14.83;;
20322;SDS011;10319;52.206;20.996;2022-12-10T08:40:15;37.63;;;13.73;;
20322;SDS011;10319;52.206;20.996;2022-12-10T08:42:41;37.47;;;13.97;;
20322;SDS011;10319;52.206;20.996;2022-12-10T08:45:06;37.67;;;13.67;;
20322;SDS011;10319;52.206;20.996;2022-12-10T08:47:31;37.10;;;13.47;;
20322;SDS011;10319;52.206;20.996;2022-12-10T08:49:56;38.03;;;13.50;;
20322;SDS011;10319;52.206;20.996;2022-12-10T08:52:22;32.93;;;11.93;;
20322;SDS011;10319;52.206;20.996;2022-12-10T08:54:47;39.77;;;13.87;;
20322;SDS011;10319;52.206;20.996;2022-12-10T08:57:12;39.97;;;14.03;;
20322;SDS011;10319;52.206;20.996;2022-12-10T08:59:37;36.93;;;12.67;;
20322;SDS011;10319;52.206;20.996;2022-12-10T09:02:02;35.53;;;12.63;;
20322;SDS011;10319;52.206;20.996;2022-12-10T09:04:27;39.60;;;13.43;;
20322;SDS011;10319;52.206;20.996;2022-12-10T09:06:53;38.67;;;14.27;;
20322;SDS011;10319;52.206;20.996;2022-12-10T09:09:18;36.73;;;12.27;;
20322;SDS011;10319;52.206;20.996;2022-12-10T09:11:43;37.23;;;13.33;;
20322;SDS011;10319;52.206;20.996;2022-12-10T09:14:10;36.67;;;12.53;;
20322;SDS011;10319;52.206;20.996;2022-12-10T09:16:36;34.50;;;12.30;;
20322;SDS011;10319;52.206;20.996;2022-12-10T09:19:02;36.23;;;12.20;;
20322;SDS011;10319;52.206;20.996;2022-12-10T09:21:27;36.63;;;12.93;;
20322;SDS011;10319;52.206;20.996;2022-12-10T09:23:52;32.83;;;12.23;;
20322;SDS011;10319;52.206;20.996;2022-12-10T09:26:18;31.20;;;11.43;;
20322;SDS011;10319;52.206;20.996;2022-12-10T09:28:44;32.00;;;11.40;;
20322;SDS011;10319;52.206;20.996;2022-12-10T09:31:10;30.43;;;10.73;;
20322;SDS011;10319;52.206;20.996;2022-12-10T09:33:35;34.37;;;12.57;;
20322;SDS011;10319;52.206;20.996;2022-12-10T09:36:04;33.87;;;12.00;;
20322;SDS011;10319;52.206;20.996;2022-12-10T09:38:31;35.43;;;12.93;;
20322;SDS011;10319;52.206;20.996;2022-12-10T09:41:02;38.30;;;13.30;;
20322;SDS011;10319;52.206;20.996;2022-12-10T09:51:06;36.30;;;13.10;;
20322;SDS011;10319;52.206;20.996;2022-12-10T09:53:34;35.77;;;13.27;;
20322;SDS011;10319;52.206;20.996;2022-12-10T09:56:01;34.97;;;12.50;;
20322;SDS011;10319;52.206;20.996;2022-12-10T09:58:27;34.07;;;12.90;;
20322;SDS011;10319;52.206;20.996;2022-12-10T10:00:57;36.47;;;13.07;;
20322;SDS011;10319;52.206;20.996;2022-12-10T10:03:23;35.97;;;12.50;;
20322;SDS011;10319;52.206;20.996;2022-12-10T10:05:51;35.33;;;12.67;;
20322;SDS011;10319;52.206;20.996;2022-12-10T10:08:36;37.30;;;12.87;;
20322;SDS011;10319;52.206;20.996;2022-12-10T10:11:04;37.93;;;13.77;;
20322;SDS011;10319;52.206;20.996;2022-12-10T10:13:32;35.60;;;12.87;;
20322;SDS011;10319;52.206;20.996;2022-12-10T10:16:19;34.30;;;12.97;;
20322;SDS011;10319;52.206;20.996;2022-12-10T10:18:46;35.77;;;13.00;;
20322;SDS011;10319;52.206;20.996;2022-12-10T10:21:23;34.70;;;12.60;;
20322;SDS011;10319;52.206;20.996;2022-12-10T10:23:49;35.37;;;12.43;;
20322;SDS011;10319;52.206;20.996;2022-12-10T10:26:14;34.43;;;12.63;;
20322;SDS011;10319;52.206;20.996;2022-12-10T10:28:39;37.10;;;13.20;;
20322;SDS011;10319;52.206;20.996;2022-12-10T10:31:12;35.67;;;13.30;;
20322;SDS011;10319;52.206;20.996;2022-12-10T10:33:47;34.27;;;12.60;;
20322;SDS011;10319;52.206;20.996;2022-12-10T10:36:13;32.80;;;12.87;;
20322;SDS011;10319;52.206;20.996;2022-12-10T10:38:39;33.77;;;12.47;;
20322;SDS011;10319;52.206;20.996;2022-12-10T10:41:11;37.50;;;13.37;;
20322;SDS011;10319;52.206;20.996;2022-12-10T10:43:39;37.93;;;13.23;;
20322;SDS011;10319;52.206;20.996;2022-12-10T10:46:09;36.27;;;12.60;;
20322;SDS011;10319;52.206;20.996;2022-12-10T10:48:35;35.60;;;12.90;;
20322;SDS011;10319;52.206;20.996;2022-12-10T10:58:32;35.73;;;12.70;;
20322;SDS011;10319;52.206;20.996;2022-12-10T11:00:59;33.47;;;12.73;;
20322;SDS011;10319;52.206;20.996;2022-12-10T11:03:25;36.90;;;12.93;;
20322;SDS011;10319;52.206;20.996;2022-12-10T11:05:51;36.00;;;13.30;;
20322;SDS011;10319;52.206;20.996;2022-12-10T11:08:16;37.33;;;13.47;;
20322;SDS011;10319;52.206;20.996;2022-12-10T11:10:48;37.47;;;13.47;;
20322;SDS011;10319;52.206;20.996;2022-12-10T11:13:18;36.07;;;13.77;;
20322;SDS011;10319;52.206;20.996;2022-12-10T11:15:44;35.40;;;12.63;;
20322;SDS011;10319;52.206;20.996;2022-12-10T11:18:31;33.60;;;12.40;;
20322;SDS011;10319;52.206;20.996;2022-12-10T11:23:25;34.20;;;13.10;;
20322;SDS011;10319;52.206;20.996;2022-12-10T11:25:55;36.37;;;13.53;;
20322;SDS011;10319;52.206;20.996;2022-12-10T11:28:39;34.50;;;12.07;;
20322;SDS011;10319;52.206;20.996;2022-12-10T11:33:44;32.97;;;12.07;;
20322;SDS011;10319;52.206;20.996;2022-12-10T11:36:29;33.50;;;12.53;;
20322;SDS011;10319;52.206;20.996;2022-12-10T11:39:20;33.47;;;12.50;;
20322;SDS011;10319;52.206;20.996;2022-12-10T11:41:56;34.70;;;11.70;;
20322;SDS011;10319;52.206;20.996;2022-12-10T11:44:34;37.47;;;13.13;;
20322;SDS011;10319;52.206;20.996;2022-12-10T11:50:13;34.17;;;11.90;;
20322;SDS011;10319;52.206;20.996;2022-12-10T11:55:18;37.13;;;12.70;;
20322;SDS011;10319;52.206;20.996;2022-12-10T11:57:40;34.10;;;11.73;;
20322;SDS011;10319;52.206;20.996;2022-12-10T12:00:19;31.87;;;12.10;;
20322;SDS011;10319;52.206;20.996;2022-12-10T12:10:33;29.73;;;10.33;;
20322;SDS011;10319;52.206;20.996;2022-12-10T12:13:01;36.63;;;12.83;;
20322;SDS011;10319;52.206;20.996;2022-12-10T12:15:34;34.77;;;11.67;;
20322;SDS011;10319;52.206;20.996;2022-12-10T12:18:04;40.13;;;13.70;;
20322;SDS011;10319;52.206;20.996;2022-12-10T12:22:58;37.13;;;13.13;;
20322;SDS011;10319;52.206;20.996;2022-12-10T12:25:29;38.43;;;13.37;;
20322;SDS011;10319;52.206;20.996;2022-12-10T12:30:22;41.43;;;14.03;;
20322;SDS011;10319;52.206;20.996;2022-12-10T12:35:48;37.07;;;13.00;;
20322;SDS011;10319;52.206;20.996;2022-12-10T12:40:51;37.00;;;13.27;;
20322;SDS011;10319;52.206;20.996;2022-12-10T12:43:18;39.93;;;14.00;;
20322;SDS011;10319;52.206;20.996;2022-12-10T12:45:45;39.67;;;13.97;;
20322;SDS011;10319;52.206;20.996;2022-12-10T12:50:50;41.33;;;14.17;;
20322;SDS011;10319;52.206;20.996;2022-12-10T12:53:20;37.30;;;12.97;;
20322;SDS011;10319;52.206;20.996;2022-12-10T13:00:55;38.93;;;14.33;;
20322;SDS011;10319;52.206;20.996;2022-12-10T13:03:40;42.23;;;14.73;;
20322;SDS011;10319;52.206;20.996;2022-12-10T13:08:44;36.13;;;13.47;;
20322;SDS011;10319;52.206;20.996;2022-12-10T13:13:41;37.10;;;13.03;;
20322;SDS011;10319;52.206;20.996;2022-12-10T13:29:55;39.80;;;14.27;;
20322;SDS011;10319;52.206;20.996;2022-12-10T13:32:21;40.27;;;14.40;;
20322;SDS011;10319;52.206;20.996;2022-12-10T13:37:34;41.57;;;15.00;;
20322;SDS011;10319;52.206;20.996;2022-12-10T13:42:34;34.97;;;12.60;;
20322;SDS011;10319;52.206;20.996;2022-12-10T13:45:27;36.87;;;13.37;;
20322;SDS011;10319;52.206;20.996;2022-12-10T13:47:54;37.73;;;13.40;;
20322;SDS011;10319;52.206;20.996;2022-12-10T14:00:20;41.67;;;14.73;;
20322;SDS011;10319;52.206;20.996;2022-12-10T14:05:23;41.93;;;15.10;;
20322;SDS011;10319;52.206;20.996;2022-12-10T14:07:52;33.50;;;12.17;;
20322;SDS011;10319;52.206;20.996;2022-12-10T14:10:26;35.00;;;13.37;;
20322;SDS011;10319;52.206;20.996;2022-12-10T14:12:52;33.93;;;13.23;;
20322;SDS011;10319;52.206;20.996;2022-12-10T14:15:27;36.03;;;14.17;;
20322;SDS011;10319;52.206;20.996;2022-12-10T14:17:54;35.37;;;13.37;;
20322;SDS011;10319;52.206;20.996;2022-12-10T14:20:23;35.63;;;14.07;;
20322;SDS011;10319;52.206;20.996;2022-12-10T14:22:49;34.03;;;13.90;;
20322;SDS011;10319;52.206;20.996;2022-12-10T14:25:15;38.17;;;15.30;;
20322;SDS011;10319;52.206;20.996;2022-12-10T14:27:41;37.23;;;14.57;;
20322;SDS011;10319;52.206;20.996;2022-12-10T14:30:17;38.10;;;14.40;;
20322;SDS011;10319;52.206;20.996;2022-12-10T14:32:43;37.03;;;15.03;;
20322;SDS011;10319;52.206;20.996;2022-12-10T14:35:15;40.53;;;15.43;;
20322;SDS011;10319;52.206;20.996;2022-12-10T14:37:42;36.27;;;15.17;;
20322;SDS011;10319;52.206;20.996;2022-12-10T14:40:08;35.87;;;14.60;;
20322;SDS011;10319;52.206;20.996;2022-12-10T14:42:37;37.93;;;13.97;;
20322;SDS011;10319;52.206;20.996;2022-12-10T14:45:03;40.97;;;15.87;;
20322;SDS011;10319;52.206;20.996;2022-12-10T14:47:35;38.03;;;15.43;;
20322;SDS011;10319;52.206;20.996;2022-12-10T14:50:01;37.87;;;15.17;;
20322;SDS011;10319;52.206;20.996;2022-12-10T14:52:34;35.60;;;14.50;;
20322;SDS011;10319;52.206;20.996;2022-12-10T14:55:04;32.93;;;13.87;;
20322;SDS011;10319;52.206;20.996;2022-12-10T14:57:37;37.63;;;15.07;;
20322;SDS011;10319;52.206;20.996;2022-12-10T15:00:07;35.33;;;15.03;;
20322;SDS011;10319;52.206;20.996;2022-12-10T15:02:37;34.67;;;14.87;;
20322;SDS011;10319;52.206;20.996;2022-12-10T15:05:03;37.87;;;15.60;;
20322;SDS011;10319;52.206;20.996;2022-12-10T15:07:33;35.50;;;14.57;;
20322;SDS011;10319;52.206;20.996;2022-12-10T15:10:00;37.17;;;15.23;;
20322;SDS011;10319;52.206;20.996;2022-12-10T15:12:30;36.73;;;15.40;;
20322;SDS011;10319;52.206;20.996;2022-12-10T15:14:57;36.67;;;15.17;;
20322;SDS011;10319;52.206;20.996;2022-12-10T15:17:40;36.77;;;14.83;;
20322;SDS011;10319;52.206;20.996;2022-12-10T15:20:27;34.83;;;15.57;;
20322;SDS011;10319;52.206;20.996;2022-12-10T15:22:52;31.67;;;12.97;;
20322;SDS011;10319;52.206;20.996;2022-12-10T15:25:25;34.00;;;14.67;;
20322;SDS011;10319;52.206;20.996;2022-12-10T15:27:57;35.30;;;15.23;;
20322;SDS011;10319;52.206;20.996;2022-12-10T15:30:24;33.83;;;14.73;;
20322;SDS011;10319;52.206;20.996;2022-12-10T15:32:49;36.07;;;15.57;;
20322;SDS011;10319;52.206;20.996;2022-12-10T15:35:15;39.17;;;16.47;;
20322;SDS011;10319;52.206;20.996;2022-12-10T15:37:40;34.57;;;15.10;;
20322;SDS011;10319;52.206;20.996;2022-12-10T15:40:19;35.73;;;15.10;;
20322;SDS011;10319;52.206;20.996;2022-12-10T15:42:45;36.70;;;15.13;;
20322;SDS011;10319;52.206;20.996;2022-12-10T15:47:50;36.00;;;15.93;;
20322;SDS011;10319;52.206;20.996;2022-12-10T15:50:15;37.03;;;15.87;;
20322;SDS011;10319;52.206;20.996;2022-12-10T15:52:41;36.37;;;16.07;;
20322;SDS011;10319;52.206;20.996;2022-12-10T15:55:07;35.60;;;15.97;;
20322;SDS011;10319;52.206;20.996;2022-12-10T15:57:36;34.70;;;16.03;;
20322;SDS011;10319;52.206;20.996;2022-12-10T16:00:08;37.50;;;15.50;;
20322;SDS011;10319;52.206;20.996;2022-12-10T16:05:02;34.40;;;15.87;;